Bowdre, Mississippi
Current Conditions -  °F | °C
As of 6:15 AM on Thursday 18 Dec 2014 (Local Time) from KUTA Reporting Station
Drizzle Drizzle  
Wind Chill: 37°   Ceiling: 4400
Heat Index: 37°   Visibility: 10mi
Dew Point: 36°   Wind: 0mph
Humidity: 93%   Direction: NA
Pressure: 30.24"   Gusts: NA
Location:  34.8092°N, 90.3159°W
Report Text: KUTA 181215Z AUTO 00000KT 10SM -DZ SCT006 BKN044 BKN070 03/02 A3024 RMK AO2
Loading
Personal Weather Stations






























Interactive Weather Map New forecast layout! Learn more

10-Day Weather Forecast

Advertisements
Track Severe Weather on mobile